Time;durP1;ratioP1;P1;durP2;ratioP2;P2;SDS_P1;SDS_P2;PMS_P1;PMS_P2;Temp;Humidity;BMP_temperature;BMP_pressure;BME280_temperature;BME280_humidity;BME280_pressure;Samples;Min_cycle;Max_cycle;Signal;HPM_P1;HPM_P2
2020/12/09 00:01:22;;;;;;;1.10;0.30;;;7.10;57.00;;;;;;5035600;28;82873;-76
2020/12/09 00:03:49;;;;;;;1.10;0.20;;;7.20;57.10;;;;;;5036590;28;80185;-77
2020/12/09 00:06:15;;;;;;;1.77;0.40;;;7.10;57.10;;;;;;5034738;28;79714;-75
2020/12/09 00:08:41;;;;;;;1.83;0.30;;;7.10;57.20;;;;;;5035508;28;80643;-76
2020/12/09 00:11:08;;;;;;;0.77;0.13;;;7.00;57.40;;;;;;5034990;28;80740;-76
2020/12/09 00:13:35;;;;;;;1.33;0.30;;;7.00;57.50;;;;;;5036254;28;80536;-75
2020/12/09 00:16:01;;;;;;;1.40;0.28;;;7.00;57.40;;;;;;5029766;28;80524;-80
2020/12/09 00:18:27;;;;;;;1.85;0.10;;;7.00;57.40;;;;;;5027122;28;80822;-79
2020/12/09 00:20:53;;;;;;;1.67;0.30;;;7.00;57.40;;;;;;5036820;28;79865;-78
2020/12/09 00:23:19;;;;;;;0.93;0.30;;;7.00;57.50;;;;;;5017522;28;83364;-77
2020/12/09 00:25:45;;;;;;;1.80;0.30;;;6.90;57.60;;;;;;5052073;28;80584;-78
2020/12/09 00:28:11;;;;;;;1.73;0.30;;;6.90;57.90;;;;;;5017402;28;80057;-77
2020/12/09 00:30:37;;;;;;;1.95;0.47;;;6.90;58.10;;;;;;5017827;28;81187;-78
2020/12/09 00:33:02;;;;;;;2.60;0.60;;;6.80;58.20;;;;;;5016542;28;81534;-77
2020/12/09 00:35:28;;;;;;;1.77;0.40;;;6.80;58.40;;;;;;5016509;28;79941;-77
2020/12/09 00:37:54;;;;;;;1.40;0.22;;;6.80;58.60;;;;;;5013080;28;83034;-77
2020/12/09 00:40:20;;;;;;;0.77;0.20;;;6.70;58.80;;;;;;5011620;28;83275;-77
2020/12/09 00:42:46;;;;;;;4.05;0.52;;;6.70;58.90;;;;;;5013479;28;79819;-75
2020/12/09 00:45:13;;;;;;;3.95;0.45;;;6.70;58.90;;;;;;5012416;28;80759;-77
2020/12/09 00:47:42;;;;;;;1.20;0.22;;;6.70;58.90;;;;;;5016337;28;80267;-77
2020/12/09 00:52:39;;;;;;;1.65;0.50;;;6.70;58.80;;;;;;5015480;28;79617;-77
2020/12/09 00:55:05;;;;;;;2.78;0.70;;;6.60;58.80;;;;;;5017190;28;80514;-76
2020/12/09 00:57:31;;;;;;;0.60;0.15;;;6.60;58.70;;;;;;5012670;28;82308;-77
2020/12/09 00:59:57;;;;;;;1.60;0.30;;;6.60;58.70;;;;;;5014673;28;83094;-77
2020/12/09 01:02:23;;;;;;;1.73;0.22;;;6.60;58.70;;;;;;5017981;28;80219;-77
2020/12/09 01:04:49;;;;;;;0.52;0.10;;;6.60;58.60;;;;;;5015421;28;80482;-76
2020/12/09 01:07:16;;;;;;;1.13;0.20;;;6.60;58.50;;;;;;5017254;28;81005;-78
2020/12/09 01:09:43;;;;;;;0.98;0.40;;;6.70;58.40;;;;;;5019703;28;79632;-77
2020/12/09 01:12:09;;;;;;;1.77;0.22;;;6.60;58.40;;;;;;5016212;28;80452;-76
2020/12/09 01:14:35;;;;;;;1.88;0.47;;;6.60;58.70;;;;;;5016311;28;80972;-77
2020/12/09 01:17:00;;;;;;;1.65;0.70;;;6.60;58.90;;;;;;5013958;28;83286;-78
2020/12/09 01:19:27;;;;;;;1.08;0.20;;;6.50;58.70;;;;;;5012026;28;84395;-74
2020/12/09 01:21:53;;;;;;;1.75;0.50;;;6.50;58.60;;;;;;5017280;28;82486;-77
2020/12/09 01:24:19;;;;;;;0.68;0.17;;;6.50;58.30;;;;;;5012210;28;82869;-74
2020/12/09 01:26:46;;;;;;;1.17;0.17;;;6.50;58.10;;;;;;5011356;28;83490;-73
2020/12/09 01:29:12;;;;;;;1.02;0.30;;;6.60;58.00;;;;;;5011270;28;83631;-75
2020/12/09 01:31:38;;;;;;;1.30;0.50;;;6.60;58.00;;;;;;4992696;28;81999;-73
2020/12/09 01:34:04;;;;;;;3.38;0.85;;;6.60;58.10;;;;;;5011320;28;81764;-74
2020/12/09 01:36:29;;;;;;;1.48;0.25;;;6.60;58.20;;;;;;5010523;28;82864;-74
2020/12/09 01:38:55;;;;;;;2.47;0.20;;;6.60;58.20;;;;;;5011811;28;83013;-73
2020/12/09 01:41:25;;;;;;;1.27;0.32;;;6.50;58.30;;;;;;5011775;28;82288;-75
2020/12/09 01:43:52;;;;;;;0.90;0.28;;;6.50;58.40;;;;;;5014386;28;80718;-74
2020/12/09 01:46:25;;;;;;;1.38;0.22;;;6.40;58.50;;;;;;5015817;28;80696;-77
2020/12/09 01:48:52;;;;;;;2.78;0.25;;;6.50;58.60;;;;;;5017839;28;82767;-75
2020/12/09 01:51:20;;;;;;;1.85;0.30;;;6.50;58.60;;;;;;5017675;28;79859;-73
2020/12/09 01:53:46;;;;;;;0.95;0.15;;;6.40;58.80;;;;;;5018217;28;80599;-73
2020/12/09 01:56:12;;;;;;;1.33;0.30;;;6.40;58.80;;;;;;5019469;28;79813;-75
2020/12/09 01:58:37;;;;;;;1.85;0.20;;;6.40;58.90;;;;;;5016751;28;83739;-75
2020/12/09 02:01:03;;;;;;;1.27;0.40;;;6.40;58.90;;;;;;5023157;28;83234;-75
2020/12/09 02:03:29;;;;;;;0.73;0.10;;;6.40;59.00;;;;;;5077024;22;83115;-73
2020/12/09 02:05:56;;;;;;;1.70;0.35;;;6.40;59.00;;;;;;5010774;28;82015;-73
2020/12/09 02:08:21;;;;;;;0.95;0.20;;;6.40;59.00;;;;;;5026429;28;79792;-74
2020/12/09 02:10:58;;;;;;;2.63;0.30;;;6.40;59.10;;;;;;5029028;28;79769;-73
2020/12/09 02:13:24;;;;;;;4.22;0.30;;;6.40;59.20;;;;;;5032757;28;80767;-74
2020/12/09 02:15:50;;;;;;;1.02;0.20;;;6.40;59.20;;;;;;5029824;28;79819;-79
2020/12/09 02:18:16;;;;;;;2.40;0.30;;;6.30;59.30;;;;;;5022746;28;81166;-75
2020/12/09 02:20:42;;;;;;;2.55;0.20;;;6.30;59.40;;;;;;5025752;28;79799;-78
2020/12/09 02:23:08;;;;;;;3.42;0.30;;;6.30;59.50;;;;;;5030980;28;81590;-77
2020/12/09 02:25:34;;;;;;;0.60;0.20;;;6.30;59.60;;;;;;5025292;28;82196;-78
2020/12/09 02:27:59;;;;;;;1.77;0.30;;;6.30;59.50;;;;;;5024275;28;81859;-77
2020/12/09 02:30:25;;;;;;;1.02;0.50;;;6.20;59.60;;;;;;5023843;28;82477;-77
2020/12/09 02:32:51;;;;;;;0.70;0.13;;;6.20;59.70;;;;;;5024154;28;79933;-78
2020/12/09 02:35:17;;;;;;;0.88;0.68;;;6.20;59.70;;;;;;5022193;28;80768;-75
2020/12/09 02:37:43;;;;;;;0.88;0.20;;;6.10;60.00;;;;;;5022268;28;81006;-77
2020/12/09 02:40:09;;;;;;;1.75;0.32;;;6.20;60.10;;;;;;5024946;28;80779;-77
2020/12/09 02:42:34;;;;;;;0.93;0.10;;;6.10;60.10;;;;;;5025283;28;79594;-78
2020/12/09 02:45:00;;;;;;;0.60;0.20;;;6.10;60.30;;;;;;5022571;28;82684;-76
2020/12/09 02:47:26;;;;;;;2.13;0.30;;;6.10;60.40;;;;;;5021461;28;79819;-78
2020/12/09 02:49:52;;;;;;;2.85;0.30;;;6.10;60.60;;;;;;5024116;28;79644;-77
2020/12/09 02:52:18;;;;;;;1.88;0.20;;;6.10;60.50;;;;;;5021676;28;82694;-78
2020/12/09 02:54:44;;;;;;;1.02;0.10;;;6.10;60.40;;;;;;5021615;28;82815;-77
2020/12/09 02:57:11;;;;;;;1.00;0.17;;;6.10;60.20;;;;;;5024376;28;80679;-76
2020/12/09 02:59:37;;;;;;;0.95;0.30;;;6.10;60.00;;;;;;5031916;28;79769;-80
2020/12/09 03:02:03;;;;;;;2.35;0.30;;;6.10;59.90;;;;;;5037385;22;82107;-79
2020/12/09 03:04:29;;;;;;;0.82;0.15;;;6.10;59.70;;;;;;5028493;28;81995;-80
2020/12/09 03:06:55;;;;;;;0.65;0.10;;;6.10;59.70;;;;;;5064895;22;81741;-80
2020/12/09 03:09:21;;;;;;;1.57;0.50;;;6.20;59.60;;;;;;5097526;22;81857;-80
2020/12/09 03:11:46;;;;;;;1.30;0.20;;;6.20;59.50;;;;;;5030379;28;81092;-75
2020/12/09 03:14:12;;;;;;;0.75;0.20;;;6.20;59.60;;;;;;5035453;22;82340;-77
2020/12/09 03:16:38;;;;;;;1.08;0.20;;;6.20;59.60;;;;;;5021482;28;83847;-75
2020/12/09 03:19:04;;;;;;;1.17;0.20;;;6.10;59.50;;;;;;5021409;28;82639;-76
2020/12/09 03:21:30;;;;;;;0.50;0.10;;;6.10;59.50;;;;;;5023107;28;82902;-78
2020/12/09 03:23:57;;;;;;;0.80;0.10;;;6.10;59.30;;;;;;5023433;28;80019;-78
2020/12/09 03:26:26;;;;;;;0.95;0.25;;;6.20;59.30;;;;;;5023286;28;82848;-77
2020/12/09 03:28:53;;;;;;;1.67;0.20;;;6.20;59.30;;;;;;5025225;28;80522;-76
2020/12/09 03:31:19;;;;;;;1.00;0.20;;;6.10;59.50;;;;;;5022649;28;81831;-77
2020/12/09 03:33:45;;;;;;;2.20;0.30;;;6.10;59.60;;;;;;5023300;28;80482;-77
2020/12/09 03:36:11;;;;;;;2.15;0.30;;;6.10;59.60;;;;;;5022032;28;80034;-77
2020/12/09 03:38:37;;;;;;;1.60;0.30;;;6.10;59.70;;;;;;5023694;28;79513;-78
2020/12/09 03:41:03;;;;;;;1.13;0.20;;;6.10;59.80;;;;;;5020615;28;82171;-76
2020/12/09 03:43:29;;;;;;;1.13;0.30;;;6.00;59.80;;;;;;5031314;28;80486;-75
2020/12/09 03:45:55;;;;;;;0.85;0.30;;;6.10;59.80;;;;;;5016886;28;82991;-73
2020/12/09 03:48:21;;;;;;;0.93;0.20;;;6.10;59.90;;;;;;5016743;28;80373;-77
2020/12/09 03:50:47;;;;;;;0.55;0.20;;;6.10;59.80;;;;;;5038705;28;81807;-78
2020/12/09 03:53:13;;;;;;;0.85;0.15;;;6.00;59.80;;;;;;5022441;28;80207;-77
2020/12/09 03:55:39;;;;;;;0.75;0.08;;;6.10;59.70;;;;;;5021269;28;81488;-76
2020/12/09 03:58:05;;;;;;;0.70;0.10;;;6.00;59.60;;;;;;5020953;28;80353;-78
2020/12/09 04:00:31;;;;;;;1.42;0.08;;;6.00;59.60;;;;;;5022435;28;80760;-76
2020/12/09 04:02:57;;;;;;;1.10;0.55;;;6.10;59.50;;;;;;5024822;28;81591;-76
2020/12/09 04:05:24;;;;;;;1.38;0.15;;;6.00;59.60;;;;;;5024652;28;83649;-77
2020/12/09 04:07:50;;;;;;;1.25;0.22;;;6.00;59.70;;;;;;5022430;28;80825;-77
2020/12/09 04:10:16;;;;;;;0.60;0.10;;;6.00;59.80;;;;;;5021748;28;81005;-75
2020/12/09 04:12:42;;;;;;;0.65;0.17;;;5.90;59.80;;;;;;5036053;28;81981;-76
2020/12/09 04:15:08;;;;;;;2.30;0.20;;;5.90;59.90;;;;;;5017750;28;80606;-74
2020/12/09 04:17:34;;;;;;;1.10;0.40;;;5.90;60.00;;;;;;5018793;28;80447;-75
2020/12/09 04:20:00;;;;;;;0.68;0.13;;;5.90;60.20;;;;;;5018735;28;80739;-76
2020/12/09 04:22:26;;;;;;;0.70;0.20;;;5.90;60.30;;;;;;5023808;28;79678;-77
2020/12/09 04:24:52;;;;;;;1.23;0.30;;;5.90;60.30;;;;;;5038249;28;80772;-76
2020/12/09 04:27:18;;;;;;;1.65;0.57;;;5.90;60.40;;;;;;5038538;28;82290;-76
2020/12/09 04:29:43;;;;;;;0.68;0.20;;;5.90;60.60;;;;;;5019512;28;80742;-76
2020/12/09 04:32:09;;;;;;;2.85;0.30;;;5.80;60.90;;;;;;5022361;28;80399;-77
2020/12/09 04:34:36;;;;;;;1.30;0.65;;;5.90;60.80;;;;;;5021680;28;80441;-76
2020/12/09 04:37:02;;;;;;;1.38;0.55;;;5.80;60.80;;;;;;5039595;28;83098;-77
2020/12/09 04:39:28;;;;;;;0.63;0.20;;;5.90;60.80;;;;;;5021786;28;80456;-75
2020/12/09 04:41:54;;;;;;;2.65;0.20;;;5.80;60.80;;;;;;5018836;28;80681;-76
2020/12/09 04:44:20;;;;;;;2.10;0.20;;;5.80;60.90;;;;;;5022472;28;79613;-78
2020/12/09 04:46:51;;;;;;;1.02;0.22;;;5.80;61.10;;;;;;5022723;28;83048;-77
2020/12/09 04:49:24;;;;;;;1.40;0.20;;;5.90;61.40;;;;;;5021311;28;83088;-76
2020/12/09 04:52:11;;;;;;;0.70;0.20;;;5.80;61.50;;;;;;5021421;28;83631;-77
2020/12/09 04:54:40;;;;;;;0.50;0.20;;;5.70;61.60;;;;;;5021496;28;83029;-76
2020/12/09 04:57:34;;;;;;;4.95;0.45;;;5.70;61.90;;;;;;5018840;28;82821;-75
2020/12/09 05:00:04;;;;;;;3.10;0.20;;;5.80;62.00;;;;;;5019176;28;82062;-77
2020/12/09 05:02:45;;;;;;;1.65;0.47;;;5.70;62.00;;;;;;5020619;28;80503;-73
2020/12/09 05:05:13;;;;;;;0.75;0.30;;;5.70;62.10;;;;;;5020747;28;81807;-75
2020/12/09 05:07:51;;;;;;;2.15;0.30;;;5.60;62.10;;;;;;5019924;28;80463;-76
2020/12/09 05:10:22;;;;;;;0.93;0.32;;;5.60;62.10;;;;;;5023669;28;81126;-78
2020/12/09 05:12:50;;;;;;;0.88;0.20;;;5.60;62.10;;;;;;5022765;28;82329;-75
2020/12/09 05:15:22;;;;;;;1.10;0.30;;;5.60;62.00;;;;;;5019955;28;80966;-75
2020/12/09 05:18:09;;;;;;;1.90;0.55;;;5.60;61.90;;;;;;5018840;28;79698;-73
2020/12/09 05:20:40;;;;;;;3.00;0.90;;;5.60;61.80;;;;;;5020358;28;80027;-79
2020/12/09 05:23:08;;;;;;;1.95;0.60;;;5.60;61.80;;;;;;5045842;22;80625;-75
2020/12/09 05:25:36;;;;;;;1.40;0.40;;;5.60;61.80;;;;;;5023835;28;81429;-78
2020/12/09 05:28:02;;;;;;;2.38;0.50;;;5.50;61.80;;;;;;5017042;28;80764;-74
2020/12/09 05:30:57;;;;;;;1.85;0.57;;;5.50;61.90;;;;;;5015926;28;79960;-74
2020/12/09 05:33:31;;;;;;;3.15;0.40;;;5.60;62.00;;;;;;5005271;28;82299;-78
2020/12/09 05:35:59;;;;;;;;;;;5.50;62.10;;;;;;5023044;28;80913;-79
2020/12/09 05:38:25;;;;;;;1.25;0.30;;;5.40;61.90;;;;;;5024720;28;81528;-76
2020/12/09 05:40:52;;;;;;;3.40;0.60;;;5.40;62.20;;;;;;5035399;28;79813;-79
2020/12/09 05:43:18;;;;;;;2.75;0.70;;;5.40;62.30;;;;;;5033553;28;80519;-76
2020/12/09 05:45:44;;;;;;;2.45;0.70;;;5.40;62.30;;;;;;5011239;28;79946;-78
2020/12/09 05:48:23;;;;;;;2.65;0.55;;;5.40;62.40;;;;;;5019165;28;82635;-78
2020/12/09 05:50:56;;;;;;;3.55;1.17;;;5.40;62.40;;;;;;5008340;28;80568;-79
2020/12/09 05:53:31;;;;;;;4.32;0.63;;;5.40;62.40;;;;;;5016167;28;80936;-77
2020/12/09 05:56:13;;;;;;;5.43;0.65;;;5.40;62.60;;;;;;5016138;28;80799;-77
2020/12/09 05:58:43;;;;;;;3.45;0.57;;;5.40;62.60;;;;;;5019564;28;80622;-78
2020/12/09 06:01:27;;;;;;;1.33;0.55;;;5.40;62.60;;;;;;5013715;28;81499;-79
2020/12/09 06:03:55;;;;;;;1.35;0.30;;;5.40;62.60;;;;;;5012058;28;80430;-77
2020/12/09 06:06:29;;;;;;;1.23;0.40;;;5.40;62.60;;;;;;5019943;28;79722;-76
2020/12/09 06:08:58;;;;;;;3.63;0.50;;;5.30;62.80;;;;;;5015910;28;80669;-77
2020/12/09 06:11:30;;;;;;;1.38;0.50;;;5.40;62.90;;;;;;5011538;28;82798;-77
2020/12/09 06:13:56;;;;;;;3.28;0.55;;;5.30;62.90;;;;;;5015680;28;80443;-77
2020/12/09 06:16:22;;;;;;;4.35;1.40;;;5.30;62.90;;;;;;5018700;28;80024;-78
2020/12/09 06:18:53;;;;;;;1.90;0.65;;;5.30;63.30;;;;;;5019473;28;80606;-79
2020/12/09 06:21:20;;;;;;;2.97;0.90;;;5.30;63.60;;;;;;5012219;28;81110;-79
2020/12/09 06:23:48;;;;;;;3.58;0.70;;;5.30;63.80;;;;;;5017091;28;80119;-76
2020/12/09 06:26:15;;;;;;;2.63;0.80;;;5.30;63.90;;;;;;5015327;28;79643;-74
2020/12/09 06:28:46;;;;;;;3.92;1.38;;;5.30;64.00;;;;;;5020245;28;79541;-77
2020/12/09 06:31:21;;;;;;;3.25;0.65;;;5.30;64.10;;;;;;5020442;28;80363;-77
2020/12/09 06:33:53;;;;;;;2.40;0.75;;;5.20;64.00;;;;;;5019616;28;79594;-78
2020/12/09 06:36:30;;;;;;;4.55;1.02;;;5.30;64.00;;;;;;5023230;28;80751;-78
2020/12/09 06:39:08;;;;;;;2.72;0.82;;;5.30;64.10;;;;;;5020199;28;79827;-76
2020/12/09 06:41:37;;;;;;;9.13;2.33;;;5.20;64.30;;;;;;5013947;28;80015;-72
2020/12/09 06:44:04;;;;;;;5.60;1.92;;;5.20;64.50;;;;;;5005387;28;80638;-72
2020/12/09 06:46:52;;;;;;;6.15;1.50;;;5.20;64.60;;;;;;4996817;28;83601;-71
2020/12/09 06:49:28;;;;;;;4.90;1.48;;;5.20;64.70;;;;;;4997914;28;80992;-75
2020/12/09 06:52:14;;;;;;;4.40;1.40;;;5.20;64.70;;;;;;4999879;28;81516;-75
2020/12/09 06:54:52;;;;;;;4.40;1.30;;;5.20;64.70;;;;;;4990038;28;82415;-76
2020/12/09 06:57:37;;;;;;;3.83;1.20;;;5.10;64.80;;;;;;5005974;28;80722;-75
2020/12/09 07:00:09;;;;;;;3.08;1.08;;;5.20;64.90;;;;;;5001304;28;82504;-73
2020/12/09 07:02:35;;;;;;;2.92;1.15;;;5.10;64.90;;;;;;5001261;28;83364;-72
2020/12/09 07:05:01;;;;;;;2.58;0.95;;;5.10;64.90;;;;;;4997116;28;81220;-70
2020/12/09 08:12:04;;;;;;;7.43;3.20;;;4.70;64.70;;;;;;4524194;27;16275239;-59
2020/12/09 08:14:47;;;;;;;12.68;4.85;;;6.20;63.10;;;;;;5055340;27;81420;-58
2020/12/09 08:17:33;;;;;;;17.08;6.82;;;5.90;63.60;;;;;;5045476;27;79982;-59
2020/12/09 08:20:23;;;;;;;11.90;5.30;;;5.90;64.00;;;;;;5084397;27;80641;-58
2020/12/09 08:23:25;;;;;;;21.27;6.22;;;5.90;64.00;;;;;;5073502;27;79939;-59
2020/12/09 08:26:04;;;;;;;20.15;6.95;;;5.90;64.30;;;;;;5080435;27;81555;-62
2020/12/09 08:28:53;;;;;;;21.33;7.78;;;5.90;64.20;;;;;;5047276;27;80498;-64
2020/12/09 08:31:39;;;;;;;13.20;6.07;;;6.10;63.90;;;;;;5082868;27;81126;-64
2020/12/09 08:34:26;;;;;;;7.15;2.03;;;6.20;63.60;;;;;;5074741;27;80409;-64
2020/12/09 08:36:56;;;;;;;7.38;2.85;;;6.40;63.10;;;;;;5083385;27;80006;-62
2020/12/09 08:39:44;;;;;;;13.10;4.70;;;6.40;62.60;;;;;;5057414;27;82065;-62
2020/12/09 08:42:36;;;;;;;14.02;4.00;;;6.60;62.30;;;;;;5083989;27;80699;-60
2020/12/09 08:45:24;;;;;;;8.15;2.75;;;6.70;62.00;;;;;;5074570;27;80392;-58
2020/12/09 08:48:24;;;;;;;7.20;3.08;;;6.80;61.70;;;;;;4989887;28;80673;-60
2020/12/09 08:51:12;;;;;;;5.72;2.80;;;6.90;61.50;;;;;;5000702;28;80090;-61
2020/12/09 08:54:13;;;;;;;6.10;2.90;;;7.00;61.20;;;;;;5075750;27;81239;-61
2020/12/09 08:56:53;;;;;;;7.40;2.10;;;7.20;60.90;;;;;;5058529;27;81576;-60
2020/12/09 08:59:46;;;;;;;7.93;2.67;;;7.20;60.50;;;;;;5080285;27;81282;-60
2020/12/09 09:02:48;;;;;;;8.35;2.58;;;7.30;60.50;;;;;;5082948;27;80078;-60
2020/12/09 09:05:46;;;;;;;5.38;0.95;;;7.40;60.60;;;;;;5078197;27;80567;-59
2020/12/09 09:11:30;;;;;;;4.57;1.42;;;7.50;59.50;;;;;;4960166;28;81571;-59
2020/12/09 09:14:10;;;;;;;5.78;1.58;;;7.60;59.10;;;;;;5020908;28;80482;-59
2020/12/09 09:17:20;;;;;;;4.53;1.42;;;7.90;58.50;;;;;;5016375;28;80797;-60
2020/12/09 09:19:53;;;;;;;4.32;0.95;;;8.20;57.50;;;;;;5008413;28;80831;-59
2020/12/09 09:22:28;;;;;;;1.50;0.47;;;8.80;55.80;;;;;;5006730;28;81983;-59
2020/12/09 09:25:04;;;;;;;2.72;1.10;;;9.00;54.90;;;;;;5025334;28;79921;-62
2020/12/09 09:27:56;;;;;;;2.83;0.55;;;9.20;54.10;;;;;;5022054;28;80632;-60
2020/12/09 09:30:47;;;;;;;2.95;0.50;;;9.70;52.60;;;;;;5026179;28;80307;-62
2020/12/09 09:33:52;;;;;;;4.90;1.20;;;10.00;51.30;;;;;;4996274;28;80017;-61
2020/12/09 09:36:55;;;;;;;4.13;1.25;;;10.50;50.40;;;;;;5005904;28;82374;-58
2020/12/09 09:39:38;;;;;;;4.07;0.90;;;10.90;50.00;;;;;;4985567;28;80102;-58
2020/12/09 09:42:17;;;;;;;4.50;1.02;;;11.20;48.30;;;;;;5012100;28;81191;-59
2020/12/09 09:45:26;;;;;;;1.92;0.55;;;11.20;48.20;;;;;;5016148;28;80624;-59
2020/12/09 09:48:38;;;;;;;1.50;0.60;;;11.30;48.10;;;;;;4988094;28;79936;-62
2020/12/09 09:51:57;;;;;;;7.30;1.40;;;11.90;46.40;;;;;;4951305;28;80795;-61
2020/12/09 09:54:52;;;;;;;1.50;0.52;;;11.90;46.20;;;;;;4976629;28;80174;-61
2020/12/09 09:57:52;;;;;;;1.98;0.65;;;11.80;47.10;;;;;;4985713;28;80543;-59
2020/12/09 10:00:31;;;;;;;3.53;0.90;;;12.40;45.60;;;;;;4927586;28;80247;-61
2020/12/09 10:03:26;;;;;;;2.47;1.02;;;13.00;44.40;;;;;;4984749;28;80881;-61
2020/12/09 10:06:12;;;;;;;3.78;1.05;;;13.70;42.40;;;;;;4981325;28;80438;-63
2020/12/09 10:09:14;;;;;;;3.42;0.73;;;14.00;41.90;;;;;;4969246;28;82973;-60
2020/12/09 10:12:04;;;;;;;4.18;0.40;;;14.40;40.70;;;;;;4985192;28;80009;-61
2020/12/09 10:14:39;;;;;;;2.13;0.60;;;13.90;40.90;;;;;;4984296;28;81085;-60
2020/12/09 10:21:02;;;;;;;4.28;0.70;;;15.00;39.60;;;;;;4875507;28;80087;-60
2020/12/09 10:23:36;;;;;;;2.30;0.80;;;16.20;37.10;;;;;;4926360;28;80489;-60
2020/12/09 10:26:27;;;;;;;2.55;0.80;;;16.40;36.60;;;;;;4910058;28;81468;-60
2020/12/09 10:29:32;;;;;;;3.05;0.85;;;16.90;35.90;;;;;;4949379;28;80404;-60
2020/12/09 10:32:44;;;;;;;3.25;1.30;;;17.40;35.10;;;;;;4989861;28;81585;-61
2020/12/09 10:38:41;;;;;;;1.95;0.68;;;20.80;30.40;;;;;;4985493;28;79859;-62
2020/12/09 10:41:20;;;;;;;3.08;0.70;;;21.50;28.40;;;;;;5007169;28;80753;-61
2020/12/09 10:44:04;;;;;;;3.70;0.80;;;19.60;30.60;;;;;;5001878;28;79981;-61
2020/12/09 10:47:04;;;;;;;;;;;;;;;;;;;;;
2020/12/09 10:49:44;;;;;;;1.73;0.60;;;18.40;32.40;;;;;;5004937;28;80465;-62
2020/12/09 10:52:30;;;;;;;2.67;1.27;;;19.40;31.10;;;;;;5007900;28;80269;-61
2020/12/09 10:55:41;;;;;;;1.30;0.50;;;20.10;30.70;;;;;;5001776;28;80810;-62
2020/12/09 10:58:22;;;;;;;2.00;0.70;;;21.20;28.80;;;;;;5005958;28;82297;-63
2020/12/09 11:00:55;;;;;;;3.90;0.55;;;21.70;27.80;;;;;;5005481;28;80054;-62
2020/12/09 11:03:44;;;;;;;1.87;0.80;;;21.90;27.20;;;;;;5007161;28;80263;-62
2020/12/09 11:06:42;;;;;;;4.60;0.38;;;21.60;27.90;;;;;;5004685;28;81063;-62
2020/12/09 11:09:35;;;;;;;1.08;0.45;;;20.90;28.50;;;;;;5007150;28;80062;-62
2020/12/09 11:12:42;;;;;;;2.53;0.65;;;20.80;28.60;;;;;;4973934;28;80070;-62
2020/12/09 11:15:23;;;;;;;1.17;0.30;;;20.70;27.70;;;;;;4936941;28;80836;-61
2020/12/09 11:18:13;;;;;;;2.00;0.43;;;19.60;29.80;;;;;;5005290;28;80832;-65
2020/12/09 11:21:10;;;;;;;3.38;0.38;;;20.90;28.00;;;;;;5007279;28;80600;-63
2020/12/09 11:24:13;;;;;;;1.17;0.43;;;22.50;26.40;;;;;;4953062;28;80767;-63
2020/12/09 11:26:49;;;;;;;1.27;0.43;;;23.60;24.90;;;;;;5006994;28;80277;-62
2020/12/09 11:30:07;;;;;;;1.35;0.50;;;24.60;24.40;;;;;;4998718;28;80360;-61
2020/12/09 11:33:11;;;;;;;1.27;0.50;;;25.00;23.10;;;;;;4947932;28;81088;-64
2020/12/09 11:36:09;;;;;;;1.00;0.30;;;24.40;24.20;;;;;;5000902;28;79944;-61
2020/12/09 11:39:02;;;;;;;2.60;0.43;;;24.50;23.20;;;;;;5007073;28;80058;-62
2020/12/09 11:42:03;;;;;;;1.77;0.50;;;23.90;24.50;;;;;;5023648;28;80979;-64
2020/12/09 11:48:07;;;;;;;1.17;0.40;;;24.90;22.90;;;;;;5004250;28;80372;-63
2020/12/09 11:50:54;;;;;;;3.10;0.35;;;23.50;24.40;;;;;;5004925;28;80544;-62
2020/12/09 11:53:42;;;;;;;2.28;0.73;;;21.40;26.60;;;;;;5004413;28;81228;-62
2020/12/09 11:57:07;;;;;;;0.90;0.40;;;19.50;28.80;;;;;;5004821;28;80832;-63
2020/12/09 11:59:44;;;;;;;;;;;18.30;29.70;;;;;;4887561;28;80524;-61
2020/12/09 12:02:34;;;;;;;1.65;0.50;;;17.60;30.50;;;;;;4891636;28;80271;-62
2020/12/09 12:05:34;;;;;;;3.45;0.55;;;17.10;32.20;;;;;;4870221;28;82602;-61
2020/12/09 12:08:17;;;;;;;4.43;0.60;;;17.00;32.50;;;;;;4863027;28;80853;-62
2020/12/09 12:11:28;;;;;;;2.72;1.13;;;16.50;33.30;;;;;;4920130;28;80601;-62
2020/12/09 12:14:04;;;;;;;1.92;0.57;;;16.40;33.90;;;;;;4906050;28;82036;-60
2020/12/09 12:17:07;;;;;;;2.90;0.60;;;16.50;33.80;;;;;;4907469;28;80317;-61
2020/12/09 12:19:42;;;;;;;1.98;0.52;;;16.80;33.30;;;;;;4905996;28;80330;-62
2020/12/09 12:22:31;;;;;;;2.42;0.52;;;17.20;32.90;;;;;;4942732;28;81002;-64
2020/12/09 12:25:13;;;;;;;1.55;0.38;;;18.00;32.10;;;;;;4989734;28;80121;-61
2020/12/09 12:28:03;;;;;;;4.20;1.00;;;20.20;29.40;;;;;;5006733;28;80086;-64
2020/12/09 12:30:36;;;;;;;2.78;0.50;;;23.60;25.90;;;;;;5004571;28;80256;-64
2020/12/09 12:33:16;;;;;;;3.15;0.55;;;25.80;23.20;;;;;;5007275;28;80021;-65
2020/12/09 12:35:54;;;;;;;2.72;0.70;;;26.30;22.90;;;;;;5006692;28;79886;-65
2020/12/09 12:38:35;;;;;;;1.15;0.45;;;26.40;22.40;;;;;;5005870;28;79824;-63
2020/12/09 12:41:16;;;;;;;1.50;0.30;;;24.90;23.00;;;;;;5003710;28;82449;-62
2020/12/09 12:43:43;;;;;;;3.97;0.98;;;23.10;25.00;;;;;;5006532;28;80571;-61
2020/12/09 12:46:17;;;;;;;0.90;0.25;;;20.70;26.90;;;;;;5007485;28;81038;-62
2020/12/09 12:49:00;;;;;;;1.85;0.60;;;19.30;28.50;;;;;;5009529;28;80952;-61
2020/12/09 12:51:51;;;;;;;1.90;0.60;;;17.90;30.10;;;;;;5009482;28;81367;-61
2020/12/09 12:54:46;;;;;;;2.45;0.40;;;16.90;32.10;;;;;;5009468;28;80959;-61
2020/12/09 13:00:51;;;;;;;1.98;0.30;;;16.90;32.50;;;;;;5005887;28;80444;-61
2020/12/09 13:04:23;;;;;;;4.30;0.40;;;17.40;31.50;;;;;;5004515;28;80011;-63
2020/12/09 13:07:29;;;;;;;1.20;0.47;;;18.30;31.10;;;;;;5018999;28;80988;-64
2020/12/09 13:13:40;;;;;;;1.38;0.40;;;18.50;30.50;;;;;;5005044;28;80330;-64
2020/12/09 13:16:20;;;;;;;1.40;0.63;;;18.80;30.40;;;;;;5009521;28;80852;-61
2020/12/09 13:19:32;;;;;;;1.35;0.32;;;19.00;30.30;;;;;;5008044;28;80686;-63
2020/12/09 13:22:15;;;;;;;1.58;0.30;;;18.80;30.40;;;;;;4962616;28;80529;-62
2020/12/09 13:24:57;;;;;;;1.38;0.30;;;18.70;30.50;;;;;;4965395;28;81138;-61
2020/12/09 13:27:51;;;;;;;2.03;0.50;;;18.30;31.00;;;;;;5007042;28;80812;-64
2020/12/09 13:30:53;;;;;;;1.10;0.43;;;17.40;31.40;;;;;;5008351;28;80099;-61
2020/12/09 13:36:37;;;;;;;2.85;1.02;;;16.00;33.20;;;;;;4947018;28;80443;-62
2020/12/09 13:39:32;;;;;;;1.20;0.47;;;15.60;34.10;;;;;;4969373;28;80742;-61
2020/12/09 13:42:28;;;;;;;3.13;0.68;;;15.20;34.30;;;;;;4995689;28;80087;-61
2020/12/09 13:45:54;;;;;;;2.45;0.50;;;14.80;35.00;;;;;;5004859;28;80336;-62
2020/12/09 13:48:40;;;;;;;1.50;0.40;;;14.20;36.00;;;;;;5017665;28;81007;-60
2020/12/09 13:51:09;;;;;;;2.90;0.30;;;13.90;36.70;;;;;;5027720;28;82621;-62
2020/12/09 13:53:56;;;;;;;2.00;0.50;;;13.50;37.40;;;;;;5028986;28;81172;-63
2020/12/09 13:56:48;;;;;;;1.42;0.70;;;13.50;37.50;;;;;;5035243;27;80028;-65
2020/12/09 13:59:34;;;;;;;2.35;0.40;;;13.50;38.00;;;;;;5025535;28;82203;-61
2020/12/09 14:02:04;;;;;;;1.40;0.45;;;13.50;37.60;;;;;;5029881;28;81925;-63
2020/12/09 14:05:20;;;;;;;1.42;0.45;;;13.50;37.60;;;;;;5027440;28;83004;-62
2020/12/09 14:08:16;;;;;;;2.70;0.30;;;13.60;37.50;;;;;;5004866;28;80515;-62
2020/12/09 14:11:06;;;;;;;0.90;0.30;;;13.80;37.10;;;;;;5000088;28;81048;-63
2020/12/09 14:13:46;;;;;;;1.00;0.20;;;13.80;37.10;;;;;;5005640;28;80141;-61
2020/12/09 14:20:08;;;;;;;1.75;0.60;;;13.80;37.20;;;;;;4943198;28;80113;-60
2020/12/09 14:22:41;;;;;;;1.27;0.47;;;13.40;37.80;;;;;;4946650;28;81145;-62
2020/12/09 14:25:43;;;;;;;1.35;0.50;;;13.10;38.60;;;;;;4946773;28;80268;-61
2020/12/09 14:28:20;;;;;;;4.15;0.90;;;12.90;39.00;;;;;;4927715;28;81326;-62
2020/12/09 14:30:56;;;;;;;1.85;0.32;;;12.80;39.40;;;;;;4891266;28;82159;-62
2020/12/09 14:33:57;;;;;;;4.28;0.82;;;12.70;39.90;;;;;;4908239;28;81007;-62
2020/12/09 14:36:55;;;;;;;2.55;0.90;;;12.80;40.10;;;;;;4900132;28;79738;-64
2020/12/09 14:39:45;;;;;;;2.22;0.60;;;12.90;40.80;;;;;;4946384;28;80591;-63
2020/12/09 14:42:26;;;;;;;3.20;0.60;;;12.70;41.30;;;;;;4977279;28;80060;-62
2020/12/09 14:45:01;;;;;;;3.47;1.05;;;12.80;41.90;;;;;;5045211;28;81176;-65
2020/12/09 14:48:09;;;;;;;2.80;0.77;;;12.60;42.20;;;;;;5015623;28;80240;-62
2020/12/09 14:50:45;;;;;;;3.40;0.90;;;12.60;42.50;;;;;;5009014;28;81167;-64
2020/12/09 14:53:22;;;;;;;2.80;0.68;;;12.60;42.40;;;;;;5026220;28;80924;-63
2020/12/09 14:56:01;;;;;;;1.63;0.40;;;12.70;42.20;;;;;;5045308;28;81422;-61
2020/12/09 14:58:43;;;;;;;2.28;0.55;;;12.50;42.00;;;;;;5039837;28;80093;-63
2020/12/09 15:04:56;;;;;;;1.77;0.60;;;12.40;42.10;;;;;;4956908;28;80054;-62
2020/12/09 15:07:39;;;;;;;4.10;1.15;;;12.40;42.10;;;;;;4881662;28;80950;-62
2020/12/09 15:10:52;;;;;;;3.03;0.60;;;12.40;41.80;;;;;;4887155;28;80347;-62
2020/12/09 15:13:48;;;;;;;4.07;0.73;;;12.30;41.90;;;;;;4871904;28;80095;-62
2020/12/09 15:16:22;;;;;;;2.35;1.00;;;12.30;42.00;;;;;;4887619;28;80595;-61
2020/12/09 15:19:13;;;;;;;4.18;0.95;;;12.10;42.30;;;;;;4888331;28;80770;-63
2020/12/09 15:24:46;;;;;;;2.22;0.63;;;11.90;42.50;;;;;;4914905;28;81184;-64
2020/12/09 15:27:34;;;;;;;3.08;0.77;;;11.80;42.30;;;;;;4965632;28;80508;-61
2020/12/09 15:30:13;;;;;;;2.65;0.68;;;11.70;41.60;;;;;;4964333;28;81151;-65
2020/12/09 15:32:59;;;;;;;6.40;0.75;;;11.60;41.40;;;;;;4949301;28;80679;-64